Aérodrome :
LOGIN :

S'inscrire | Disclaimer

   EN    FR    IT 

 










Légende :    VFR   VFR Marginal   IFR   IFR Intensif   IFR Très Intensif
Visi : 
Plafond : 
>= 8 km
>= 3000ft
5 à 8 km
1000 à 3000 ft
1500m à 5 km
500 à 1000 ft
800 à 1500m
200 à 500 ft
< 800m
< 200 ft
Symboles :   Orages  Brouillard  Fortes neiges  Fortes précipitations  Vent > 20 kt
SIGMETs :   Divers  Orages  Givrage  Turbulence  Onde Orograph.  Cendres Volcan.







- Altitude de l'aérodrome : 1300 ft
- Code IATA : LIG
- Voir les cartes d'approche


LFBL - Limoges

DERNIER METAR :
  • 291100Z AUTO 14010KT 100V180 CAVOK 14/M02 Q1013 NOSIG

METARs EXPIRÉS :
  • 291030Z AUTO 13010KT 070V160 CAVOK 14/M02 Q1014 NOSIG
  • 291000Z AUTO 10011KT 060V150 CAVOK 13/M01 Q1014 NOSIG
  • 290930Z AUTO 08011KT 040V120 CAVOK 12/02 Q1014 NOSIG
  • 290900Z AUTO 07012KT CAVOK 11/03 Q1015 BECMG 16010KT
  • 290830Z AUTO 07009KT 040V100 CAVOK 10/03 Q1015 BECMG 16010KT

TAF TAF LFBL
Valide du 29 à 06h jusqu'au 30 à 06h UTC


290500Z 2906/3006 04003KT CAVOK
BECMG 2910/2912 16010KT
ATIS : +33 5 55 48 40 37
Pas de NOTAMs connus pour ce terrain.



MET'MAP, la Météo Aéronautique d'un coup d'oeil ! - Copyright ORBIFLY Décembre 2007 - Disclaimer

ORBIFLY MET'MAP TEAM :

Programmation & Développement : Alexandra Zaïnal
Conception & Développement : Baudouin d'Aumeries
Co-Programmation & Développement : Marc-Olivier Méhu
Soutien technique & logistique : Manuel Goepfert

Contact : metmap@orbifly.com




SOURCES & CREDITS :

   NOAA